Time;durP1;ratioP1;P1;durP2;ratioP2;P2;SDS_P1;SDS_P2;PMS_P1;PMS_P2;Temp;Humidity;BMP_temperature;BMP_pressure;BME280_temperature;BME280_humidity;BME280_pressure;Samples;Min_cycle;Max_cycle;Signal;HPM_P1;HPM_P2
2024/02/08 00:01:28;;;;;;;14.93;8.43;;;2.90;99.90;;;;;;4978262;28;20046;-79
2024/02/08 00:03:53;;;;;;;14.52;8.77;;;2.90;99.90;;;;;;4988406;28;20121;-80
2024/02/08 00:06:19;;;;;;;15.15;8.68;;;2.90;99.90;;;;;;4992442;28;20038;-80
2024/02/08 00:08:45;;;;;;;13.90;8.85;;;2.90;99.90;;;;;;4980521;28;20034;-81
2024/02/08 00:11:10;;;;;;;15.05;9.45;;;3.00;99.90;;;;;;4978012;28;20035;-80
2024/02/08 00:13:36;;;;;;;13.57;8.00;;;2.90;99.90;;;;;;4974829;28;20499;-80
2024/02/08 00:16:02;;;;;;;15.77;8.55;;;2.90;99.90;;;;;;4977308;28;20031;-81
2024/02/08 00:18:28;;;;;;;19.50;7.78;;;2.90;99.90;;;;;;4978057;28;20127;-80
2024/02/08 00:20:54;;;;;;;17.45;7.03;;;2.90;99.90;;;;;;4977390;28;20039;-79
2024/02/08 00:23:19;;;;;;;14.32;6.97;;;2.90;99.90;;;;;;4979991;28;20242;-80
2024/02/08 00:25:50;;;;;;;19.17;6.90;;;2.90;99.90;;;;;;4980796;28;20042;-79
2024/02/08 00:28:16;;;;;;;12.15;6.72;;;2.90;99.90;;;;;;4963805;28;20043;-79
2024/02/08 00:30:42;;;;;;;14.15;7.10;;;2.90;99.90;;;;;;4981112;28;20035;-80
2024/02/08 00:33:08;;;;;;;11.38;7.10;;;2.90;99.90;;;;;;4984937;28;20035;-80
2024/02/08 00:35:34;;;;;;;10.48;6.43;;;2.90;99.90;;;;;;4979916;28;20035;-79
2024/02/08 00:38:00;;;;;;;11.93;7.22;;;2.90;99.90;;;;;;4981627;28;20035;-79
2024/02/08 00:40:26;;;;;;;10.45;6.03;;;2.90;99.90;;;;;;4978467;28;20097;-78
2024/02/08 00:42:53;;;;;;;36.65;7.45;;;2.90;99.90;;;;;;4974397;28;20038;-78
2024/02/08 00:45:22;;;;;;;43.47;7.75;;;2.90;99.90;;;;;;5006171;28;20046;-78
2024/02/08 00:47:54;;;;;;;54.03;8.15;;;2.90;99.90;;;;;;4977956;28;20411;-78
2024/02/08 00:50:21;;;;;;;93.32;9.45;;;2.90;99.90;;;;;;4973155;28;20031;-78
2024/02/08 00:52:47;;;;;;;9.48;5.82;;;2.90;99.90;;;;;;4974856;28;20041;-78
2024/02/08 00:55:16;;;;;;;18.48;6.47;;;2.90;99.90;;;;;;4974841;28;20113;-78
2024/02/08 00:57:43;;;;;;;13.93;6.50;;;3.00;99.90;;;;;;4956639;28;20455;-78
2024/02/08 01:00:09;;;;;;;9.35;6.22;;;3.00;99.90;;;;;;4975198;28;20046;-79
2024/02/08 01:02:35;;;;;;;10.45;6.13;;;3.00;99.90;;;;;;4975451;28;20042;-79
2024/02/08 01:05:01;;;;;;;9.85;5.95;;;3.00;99.90;;;;;;4973824;28;20023;-79
2024/02/08 01:07:34;;;;;;;9.13;5.85;;;3.10;99.90;;;;;;4970187;28;20607;-79
2024/02/08 01:10:01;;;;;;;9.68;5.88;;;3.10;99.90;;;;;;4970240;28;20460;-78
2024/02/08 01:12:27;;;;;;;11.15;6.38;;;3.10;99.90;;;;;;4982649;28;20043;-79
2024/02/08 01:14:53;;;;;;;9.63;6.28;;;3.10;99.90;;;;;;4989185;28;20483;-79
2024/02/08 01:17:19;;;;;;;10.48;6.40;;;3.10;99.90;;;;;;4974240;28;20440;-79
2024/02/08 01:19:46;;;;;;;9.43;6.05;;;3.10;99.90;;;;;;4972867;28;20123;-79
2024/02/08 01:22:19;;;;;;;10.10;6.05;;;3.10;99.90;;;;;;4963122;28;20094;-79
2024/02/08 01:24:48;;;;;;;11.27;6.60;;;3.10;99.90;;;;;;4970754;28;20554;-78
2024/02/08 01:27:14;;;;;;;10.32;6.07;;;3.10;99.90;;;;;;4967987;28;20046;-79
2024/02/08 01:29:40;;;;;;;10.70;6.60;;;3.10;99.90;;;;;;4972661;28;20042;-79
2024/02/08 01:32:06;;;;;;;11.32;6.50;;;3.10;99.90;;;;;;4972646;28;20093;-79
2024/02/08 01:34:50;;;;;;;10.15;5.97;;;3.10;99.90;;;;;;4972625;28;20049;-79
2024/02/08 01:37:16;;;;;;;9.50;5.95;;;3.00;99.90;;;;;;4973897;28;20117;-79
2024/02/08 01:39:42;;;;;;;9.13;5.47;;;3.10;99.90;;;;;;4972614;28;20101;-78
2024/02/08 01:42:15;;;;;;;7.03;4.72;;;3.10;99.90;;;;;;4962133;28;20513;-78
2024/02/08 01:44:48;;;;;;;9.38;5.32;;;3.10;99.90;;;;;;4964110;28;20468;-78
2024/02/08 01:47:17;;;;;;;9.07;5.63;;;3.10;99.90;;;;;;4969090;28;20022;-79
2024/02/08 01:49:46;;;;;;;8.40;5.45;;;3.20;99.90;;;;;;4957297;28;20042;-78
2024/02/08 01:52:18;;;;;;;7.93;5.13;;;3.10;99.90;;;;;;4962140;28;20035;-78
2024/02/08 01:54:47;;;;;;;7.55;5.13;;;3.10;99.90;;;;;;4972294;28;20077;-78
2024/02/08 01:57:15;;;;;;;8.02;4.60;;;3.10;99.90;;;;;;4967893;28;20077;-78
2024/02/08 01:59:44;;;;;;;7.53;5.15;;;3.10;99.90;;;;;;4962093;28;20039;-79
2024/02/08 02:02:11;;;;;;;7.55;4.70;;;3.10;99.90;;;;;;4966805;28;20043;-78
2024/02/08 02:04:39;;;;;;;6.68;4.13;;;3.10;99.90;;;;;;4969827;28;20039;-78
2024/02/08 02:07:05;;;;;;;6.75;4.00;;;3.10;99.90;;;;;;4968356;28;20035;-78
2024/02/08 02:09:31;;;;;;;8.15;4.78;;;3.10;99.90;;;;;;4968761;28;20118;-78
2024/02/08 02:12:07;;;;;;;7.80;4.97;;;3.10;99.90;;;;;;4972034;28;20034;-78
2024/02/08 02:14:35;;;;;;;6.57;4.43;;;3.10;99.90;;;;;;4970006;28;20066;-78
2024/02/08 02:17:18;;;;;;;6.88;4.53;;;3.10;99.90;;;;;;4972392;28;20035;-78
2024/02/08 02:19:46;;;;;;;6.35;4.32;;;3.20;99.90;;;;;;4973626;28;20030;-78
2024/02/08 02:22:13;;;;;;;6.85;4.38;;;3.10;99.90;;;;;;4972534;28;20431;-78
2024/02/08 02:24:40;;;;;;;5.78;4.13;;;3.10;99.90;;;;;;4972002;28;20050;-78
2024/02/08 02:27:08;;;;;;;6.90;4.32;;;3.10;99.90;;;;;;4978726;28;20058;-79
2024/02/08 02:29:34;;;;;;;5.50;3.63;;;3.10;99.90;;;;;;4972219;28;20035;-78
2024/02/08 02:32:01;;;;;;;4.32;3.42;;;3.10;99.90;;;;;;4971981;28;20698;-79
2024/02/08 02:34:30;;;;;;;5.43;3.30;;;3.10;99.90;;;;;;4971733;28;20411;-79
2024/02/08 02:36:59;;;;;;;7.82;3.88;;;3.00;99.90;;;;;;4956585;28;20034;-78
2024/02/08 02:39:26;;;;;;;4.57;3.13;;;3.10;99.90;;;;;;4973410;28;20039;-78
2024/02/08 02:41:54;;;;;;;4.72;3.30;;;3.10;99.90;;;;;;4972706;28;20031;-78
2024/02/08 02:44:23;;;;;;;5.45;3.80;;;3.00;99.90;;;;;;4956202;28;20031;-78
2024/02/08 02:46:53;;;;;;;5.45;3.42;;;3.00;99.90;;;;;;4964463;28;20502;-78
2024/02/08 02:49:21;;;;;;;6.10;3.70;;;3.00;99.90;;;;;;4973885;28;20046;-78
2024/02/08 02:51:48;;;;;;;5.22;3.33;;;3.00;99.90;;;;;;4972461;28;20388;-78
2024/02/08 02:54:19;;;;;;;5.22;3.70;;;3.00;99.90;;;;;;4968910;28;20042;-78
2024/02/08 02:56:50;;;;;;;3.55;2.75;;;3.00;99.90;;;;;;4971226;28;20042;-78
2024/02/08 02:59:20;;;;;;;4.47;3.13;;;3.00;99.90;;;;;;4973939;28;20090;-78
2024/02/08 03:01:49;;;;;;;4.10;2.92;;;3.00;99.90;;;;;;4973006;28;20057;-78
2024/02/08 03:04:18;;;;;;;4.60;3.60;;;3.00;99.90;;;;;;4964497;28;20142;-78
2024/02/08 03:06:45;;;;;;;4.80;3.40;;;3.00;99.90;;;;;;4973319;28;20039;-78
2024/02/08 03:09:23;;;;;;;4.28;3.05;;;3.00;99.90;;;;;;4973121;28;20419;-78
2024/02/08 03:11:49;;;;;;;4.57;2.88;;;3.00;99.90;;;;;;4971574;28;20042;-78
2024/02/08 03:14:16;;;;;;;4.00;3.05;;;3.00;99.90;;;;;;4967463;28;20074;-77
2024/02/08 03:16:42;;;;;;;5.85;3.88;;;3.00;99.90;;;;;;4972614;28;20038;-78
2024/02/08 03:19:08;;;;;;;5.10;3.20;;;3.00;99.90;;;;;;4961973;28;20094;-78
2024/02/08 03:21:40;;;;;;;5.88;3.40;;;3.00;99.90;;;;;;4968858;28;20126;-78
2024/02/08 03:24:09;;;;;;;5.22;3.33;;;3.00;99.90;;;;;;4971715;28;20097;-78
2024/02/08 03:26:46;;;;;;;6.97;3.67;;;3.00;99.90;;;;;;4971340;28;20026;-78
2024/02/08 03:29:13;;;;;;;5.43;3.58;;;3.00;99.90;;;;;;4971464;28;20410;-78
2024/02/08 03:31:46;;;;;;;6.03;3.65;;;3.00;99.90;;;;;;4972547;28;20090;-78
2024/02/08 03:34:19;;;;;;;6.07;3.45;;;3.00;99.90;;;;;;4987277;28;20402;-78
2024/02/08 03:36:51;;;;;;;4.20;3.03;;;3.00;99.90;;;;;;4969969;28;20035;-78
2024/02/08 03:39:26;;;;;;;5.10;3.20;;;3.10;99.90;;;;;;4972326;28;20373;-77
2024/02/08 03:42:01;;;;;;;6.80;2.85;;;3.10;99.90;;;;;;4967025;28;20562;-78
2024/02/08 03:44:30;;;;;;;6.53;2.85;;;3.10;99.90;;;;;;4972218;28;20027;-78
2024/02/08 03:47:04;;;;;;;5.45;3.05;;;3.10;99.90;;;;;;4955057;28;20102;-78
2024/02/08 03:49:47;;;;;;;4.68;3.20;;;3.10;99.90;;;;;;4972466;28;20034;-78
2024/02/08 03:52:14;;;;;;;4.60;3.13;;;3.10;99.90;;;;;;4972426;28;20070;-78
2024/02/08 03:54:41;;;;;;;4.40;2.60;;;3.20;99.90;;;;;;4971101;28;20046;-77
2024/02/08 03:57:07;;;;;;;5.55;3.40;;;3.10;99.90;;;;;;4970972;28;20410;-78
2024/02/08 03:59:40;;;;;;;4.30;2.85;;;3.10;99.90;;;;;;4971315;28;20121;-78
2024/02/08 04:02:09;;;;;;;3.88;2.70;;;3.10;99.90;;;;;;4960302;28;20042;-78
2024/02/08 04:05:06;;;;;;;4.28;2.50;;;3.20;99.90;;;;;;4969410;28;20042;-78
2024/02/08 04:10:29;;;;;;;5.07;3.00;;;3.20;99.90;;;;;;4971420;28;20073;-78
2024/02/08 04:54:02;;;;;;;4.47;2.17;;;3.30;99.90;;;;;;4974605;28;20054;-78
2024/02/08 04:56:31;;;;;;;6.13;3.30;;;3.30;99.90;;;;;;4971013;28;20480;-78
2024/02/08 04:58:58;;;;;;;8.23;4.30;;;3.30;99.90;;;;;;4972281;28;20031;-78
2024/02/08 05:01:26;;;;;;;11.30;4.55;;;3.30;99.90;;;;;;4975490;28;20077;-78
2024/02/08 05:03:52;;;;;;;12.18;5.22;;;3.30;99.90;;;;;;4973735;28;20455;-78
2024/02/08 05:06:21;;;;;;;8.90;4.85;;;3.30;99.90;;;;;;4974859;28;20027;-78
2024/02/08 05:08:48;;;;;;;9.75;4.65;;;3.30;99.90;;;;;;4972901;28;20099;-78
2024/02/08 05:11:15;;;;;;;8.35;4.40;;;3.20;99.90;;;;;;4975379;28;20043;-78
2024/02/08 05:13:43;;;;;;;9.23;4.60;;;3.20;99.90;;;;;;4969436;28;20039;-78
2024/02/08 05:16:16;;;;;;;8.80;4.80;;;3.30;99.90;;;;;;4989906;28;20119;-78
2024/02/08 05:18:46;;;;;;;10.10;4.60;;;3.30;99.90;;;;;;4973710;28;20031;-78
2024/02/08 05:21:16;;;;;;;8.35;4.07;;;3.30;99.90;;;;;;4974236;28;20039;-78
2024/02/08 05:23:42;;;;;;;5.78;3.45;;;3.30;99.90;;;;;;4973676;28;20039;-78
2024/02/08 05:26:09;;;;;;;6.47;3.13;;;3.40;99.90;;;;;;4972205;28;20116;-78
2024/02/08 05:28:36;;;;;;;5.18;2.83;;;3.40;99.90;;;;;;4957353;28;20133;-78
2024/02/08 05:31:03;;;;;;;6.85;3.33;;;3.40;99.90;;;;;;4973049;28;20125;-78
2024/02/08 05:33:32;;;;;;;7.20;3.30;;;3.50;99.90;;;;;;4973333;28;20046;-78
2024/02/08 05:35:59;;;;;;;5.57;3.20;;;3.40;99.90;;;;;;4957084;28;20031;-78
2024/02/08 05:38:25;;;;;;;5.25;3.22;;;3.50;99.90;;;;;;4973397;28;20035;-78
2024/02/08 05:40:52;;;;;;;4.68;2.58;;;3.50;99.90;;;;;;4957035;28;20379;-78
2024/02/08 05:43:27;;;;;;;4.68;2.85;;;3.50;99.90;;;;;;4956799;28;20085;-78
2024/02/08 05:45:56;;;;;;;5.22;2.97;;;3.50;99.90;;;;;;4973876;28;20515;-78
2024/02/08 05:48:27;;;;;;;4.15;2.40;;;3.50;99.90;;;;;;4973995;28;20034;-78
2024/02/08 05:51:02;;;;;;;5.05;2.50;;;3.50;99.90;;;;;;4967321;28;20092;-78
2024/02/08 05:53:32;;;;;;;4.18;2.70;;;3.50;99.90;;;;;;4972749;28;20027;-78
2024/02/08 05:55:59;;;;;;;5.88;2.45;;;3.50;99.90;;;;;;4972888;28;20082;-78
2024/02/08 05:58:27;;;;;;;3.38;2.08;;;3.50;99.90;;;;;;4993499;23;20036;-77
2024/02/08 06:00:55;;;;;;;5.55;2.30;;;3.50;99.90;;;;;;4973028;28;20035;-76
2024/02/08 06:03:27;;;;;;;3.22;2.00;;;3.50;99.90;;;;;;4971147;28;20038;-78
2024/02/08 06:06:06;;;;;;;2.67;2.03;;;3.50;99.90;;;;;;4974286;28;20039;-78
2024/02/08 06:08:41;;;;;;;3.55;2.00;;;3.40;99.90;;;;;;4987034;28;20030;-78
2024/02/08 06:11:16;;;;;;;3.13;1.95;;;3.40;99.90;;;;;;4989794;28;20034;-78
2024/02/08 06:13:54;;;;;;;3.95;2.13;;;3.50;99.90;;;;;;4987469;28;20072;-78
2024/02/08 06:16:33;;;;;;;3.72;2.25;;;3.50;99.90;;;;;;4989147;28;20038;-77
2024/02/08 06:19:02;;;;;;;5.25;2.17;;;3.50;99.90;;;;;;4990774;28;20034;-78
2024/02/08 06:21:41;;;;;;;2.67;1.50;;;3.50;99.90;;;;;;4989311;28;20030;-78
2024/02/08 06:26:58;;;;;;;1.95;1.35;;;3.50;99.90;;;;;;4983353;28;20533;-77
2024/02/08 06:29:38;;;;;;;2.83;1.95;;;3.60;99.90;;;;;;4984996;28;20042;-77
2024/02/08 06:32:33;;;;;;;2.30;1.65;;;3.60;99.90;;;;;;4986706;28;20490;-78
2024/02/08 06:35:20;;;;;;;1.60;1.30;;;3.50;99.90;;;;;;4985718;28;20371;-77
2024/02/08 06:37:58;;;;;;;2.38;1.75;;;3.60;99.90;;;;;;4986074;28;20058;-77
2024/02/08 06:40:37;;;;;;;1.38;1.23;;;3.60;99.90;;;;;;4986847;28;20494;-78
2024/02/08 07:37:42;;;;;;;1.70;0.50;;;3.70;99.90;;;;;;4985760;28;20034;-78
2024/02/08 07:40:23;;;;;;;7.30;0.55;;;3.80;99.90;;;;;;4983842;28;20038;-77
2024/02/08 07:45:51;;;;;;;9.38;1.00;;;3.80;99.90;;;;;;4985722;28;20471;-78
2024/02/08 07:51:15;;;;;;;1.00;0.70;;;3.80;99.90;;;;;;5007655;28;20074;-78
2024/02/08 07:53:53;;;;;;;0.65;0.43;;;3.90;99.90;;;;;;4983403;28;20050;-77
2024/02/08 07:58:50;;;;;;;1.08;0.40;;;4.00;99.90;;;;;;4985972;28;20030;-79
2024/02/08 08:01:17;;;;;;;8.80;0.50;;;4.00;99.90;;;;;;4981885;28;20560;-77
2024/02/08 08:03:44;;;;;;;0.40;0.30;;;4.00;99.90;;;;;;4983173;28;20097;-78
2024/02/08 08:06:10;;;;;;;0.85;0.32;;;4.00;99.90;;;;;;4984254;28;20045;-78
2024/02/08 08:08:36;;;;;;;0.30;0.30;;;4.00;99.90;;;;;;4988730;28;20022;-78
2024/02/08 08:11:05;;;;;;;0.85;0.20;;;4.00;99.90;;;;;;4990809;28;20049;-78
2024/02/08 08:18:58;;;;;;;;;;;4.10;99.90;;;;;;4992767;28;20034;-75
2024/02/08 08:21:29;;;;;;;14.38;0.40;;;4.10;99.90;;;;;;4987180;28;19925;-79
2024/02/08 08:24:02;;;;;;;0.73;0.20;;;4.10;99.90;;;;;;4982569;28;20486;-78
2024/02/08 08:26:39;;;;;;;5.93;0.40;;;4.10;99.90;;;;;;4986514;28;20038;-78
2024/02/08 08:29:16;;;;;;;0.55;0.20;;;4.10;99.90;;;;;;4987733;28;20030;-79
2024/02/08 08:31:52;;;;;;;0.35;0.10;;;4.20;99.90;;;;;;4988675;28;20034;-78
2024/02/08 08:36:59;;;;;;;0.20;0.20;;;4.30;99.90;;;;;;4991701;28;19914;-77
2024/02/08 08:39:46;;;;;;;0.30;0.30;;;4.30;99.90;;;;;;4990398;28;20029;-76
2024/02/08 08:42:16;;;;;;;0.28;0.28;;;4.30;99.90;;;;;;4989249;28;20050;-77
2024/02/08 08:44:59;;;;;;;1.55;1.25;;;4.40;99.90;;;;;;4984528;28;20038;-78
2024/02/08 08:47:27;;;;;;;2.55;1.67;;;4.40;99.90;;;;;;4983988;28;20074;-76
2024/02/08 08:49:56;;;;;;;3.35;1.92;;;4.50;99.90;;;;;;4987590;28;20038;-77
2024/02/08 08:52:25;;;;;;;22.83;16.13;;;4.50;99.90;;;;;;4991693;28;20482;-78
2024/02/08 08:55:10;;;;;;;5.97;4.47;;;4.60;99.90;;;;;;4987501;28;20497;-78
2024/02/08 08:57:37;;;;;;;0.75;0.75;;;4.60;99.90;;;;;;4984233;28;20078;-76
2024/02/08 09:00:09;;;;;;;1.15;0.98;;;4.50;99.90;;;;;;4985831;28;20034;-78
2024/02/08 09:02:40;;;;;;;1.10;0.75;;;4.50;99.90;;;;;;4985015;28;20249;-75
2024/02/08 09:05:17;;;;;;;6.25;1.80;;;4.50;99.90;;;;;;4984769;28;20038;-78
2024/02/08 09:07:46;;;;;;;3.17;1.95;;;4.50;99.90;;;;;;4982028;28;20030;-78
2024/02/08 09:10:16;;;;;;;6.57;3.53;;;4.60;99.90;;;;;;4983770;28;20058;-78
2024/02/08 09:12:58;;;;;;;11.02;0.88;;;4.60;99.90;;;;;;4989527;28;20121;-79
2024/02/08 09:15:27;;;;;;;4.13;2.40;;;4.60;99.90;;;;;;4984582;28;20755;-78
2024/02/08 09:17:57;;;;;;;3.22;2.20;;;4.60;99.90;;;;;;4986761;28;20034;-78
2024/02/08 09:20:28;;;;;;;4.97;3.00;;;4.70;99.90;;;;;;4971907;28;20489;-78
2024/02/08 09:22:57;;;;;;;4.90;2.65;;;4.70;99.90;;;;;;4987004;28;20042;-78
2024/02/08 09:25:23;;;;;;;4.15;3.30;;;4.70;99.90;;;;;;4986692;28;20022;-78
2024/02/08 09:27:55;;;;;;;48.45;1.92;;;4.80;99.90;;;;;;4987144;28;20117;-78
2024/02/08 09:33:44;;;;;;;4.80;0.70;;;4.90;99.90;;;;;;4999775;28;20054;-77
2024/02/08 09:36:14;;;;;;;13.40;0.77;;;5.00;99.90;;;;;;4984167;28;20042;-79
2024/02/08 09:38:43;;;;;;;15.20;0.63;;;5.10;99.90;;;;;;4989952;28;20043;-77
2024/02/08 09:41:17;;;;;;;13.10;0.75;;;5.10;99.90;;;;;;4988876;28;20030;-79
2024/02/08 09:43:47;;;;;;;0.63;0.50;;;5.20;99.90;;;;;;4984021;28;20501;-79
2024/02/08 09:46:49;;;;;;;3.30;1.52;;;5.20;99.90;;;;;;4987088;28;20027;-79
2024/02/08 09:49:17;;;;;;;1.60;1.38;;;5.30;99.90;;;;;;4989531;28;20054;-77
2024/02/08 09:51:53;;;;;;;1.60;1.02;;;5.30;99.90;;;;;;4986214;28;20109;-78
2024/02/08 09:54:30;;;;;;;1.98;1.50;;;5.40;99.90;;;;;;4992131;28;20113;-78
2024/02/08 09:57:21;;;;;;;0.75;0.55;;;5.40;99.90;;;;;;4981999;28;20570;-77
2024/02/08 09:59:59;;;;;;;1.00;0.65;;;5.50;99.90;;;;;;4987480;28;20509;-78
2024/02/08 10:02:32;;;;;;;0.85;0.50;;;5.50;99.90;;;;;;4986712;28;20386;-78
2024/02/08 10:05:18;;;;;;;1.25;0.88;;;5.50;99.90;;;;;;4991583;28;20490;-78
2024/02/08 10:08:08;;;;;;;1.95;1.25;;;5.50;99.90;;;;;;4988542;28;20413;-78
2024/02/08 10:11:38;;;;;;;1.17;1.08;;;5.60;99.90;;;;;;4989302;28;20035;-78
2024/02/08 10:13:53;;;;;;;2.10;1.17;;;5.60;99.90;;;;;;4995850;28;20497;-78
2024/02/08 10:16:29;;;;;;;1.70;1.27;;;5.70;99.90;;;;;;4993572;28;20036;-78
2024/02/08 10:19:16;;;;;;;0.35;0.30;;;5.80;99.90;;;;;;4995529;28;20046;-78
2024/02/08 10:21:44;;;;;;;0.20;0.10;;;5.80;99.90;;;;;;4987762;28;20027;-78
2024/02/08 10:24:25;;;;;;;0.17;0.17;;;5.80;99.90;;;;;;4990419;28;20031;-78
2024/02/08 10:26:54;;;;;;;0.10;0.10;;;5.80;99.90;;;;;;4987881;28;20418;-77
2024/02/08 10:29:24;;;;;;;0.13;0.10;;;5.80;99.90;;;;;;4982519;28;20038;-78
2024/02/08 10:31:54;;;;;;;0.00;0.00;;;5.80;99.90;;;;;;4983934;28;20390;-77
2024/02/08 10:34:33;;;;;;;2.63;0.10;;;5.80;99.90;;;;;;4985123;28;20459;-77
2024/02/08 10:36:59;;;;;;;0.10;0.10;;;5.90;99.90;;;;;;4988835;28;20093;-77
2024/02/08 10:39:25;;;;;;;0.00;0.00;;;6.00;99.90;;;;;;4981114;28;20446;-77
2024/02/08 10:41:58;;;;;;;0.00;0.00;;;6.10;99.90;;;;;;4984360;28;20401;-77
2024/02/08 10:44:32;;;;;;;0.00;0.00;;;6.20;99.90;;;;;;4986715;28;20031;-77
2024/02/08 10:47:06;;;;;;;0.00;0.00;;;6.30;99.90;;;;;;4989982;28;20038;-77
2024/02/08 10:49:44;;;;;;;0.17;0.17;;;6.40;99.90;;;;;;4986329;28;20039;-77
2024/02/08 10:52:19;;;;;;;0.52;0.40;;;6.50;99.90;;;;;;4984551;28;20057;-77
2024/02/08 10:54:52;;;;;;;0.10;0.10;;;6.70;99.90;;;;;;4981254;28;20093;-77
2024/02/08 10:58:19;;;;;;;0.00;0.00;;;6.80;99.90;;;;;;4986107;28;20060;-77
2024/02/08 11:03:07;;;;;;;0.20;0.20;;;7.10;99.90;;;;;;4984992;28;20041;-77
2024/02/08 11:06:00;;;;;;;0.00;0.00;;;7.10;99.90;;;;;;4987996;28;20406;-78
2024/02/08 11:08:33;;;;;;;0.10;0.10;;;7.10;99.90;;;;;;4979033;28;20031;-78
2024/02/08 11:11:09;;;;;;;0.47;0.47;;;6.90;99.90;;;;;;4984786;28;20026;-78
2024/02/08 11:13:40;;;;;;;0.17;0.10;;;6.90;99.90;;;;;;4991740;28;20052;-78
2024/02/08 11:16:33;;;;;;;0.60;0.30;;;6.80;99.90;;;;;;4987198;28;20426;-78
2024/02/08 11:19:04;;;;;;;0.22;0.22;;;6.80;99.90;;;;;;4984996;28;20121;-79
2024/02/08 11:21:51;;;;;;;3.42;1.50;;;6.80;99.90;;;;;;4990405;28;20279;-79
2024/02/08 11:24:28;;;;;;;6.05;2.30;;;6.70;99.90;;;;;;4988986;28;20510;-77
2024/02/08 11:26:57;;;;;;;0.80;0.68;;;6.80;99.90;;;;;;4986385;28;20035;-78
2024/02/08 11:29:26;;;;;;;0.38;0.38;;;6.70;99.90;;;;;;4979667;28;20034;-78
2024/02/08 11:31:55;;;;;;;4.28;3.50;;;6.70;99.90;;;;;;4977148;28;20029;-78
2024/02/08 11:34:24;;;;;;;1.17;1.00;;;6.60;99.90;;;;;;4983014;28;20078;-78
2024/02/08 11:36:58;;;;;;;2.63;2.42;;;6.60;99.90;;;;;;4980158;28;20038;-78
2024/02/08 11:39:28;;;;;;;0.85;0.80;;;6.60;99.90;;;;;;4986861;28;20046;-78
2024/02/08 11:41:59;;;;;;;1.10;0.68;;;6.60;99.90;;;;;;4985752;28;20481;-78
2024/02/08 11:44:36;;;;;;;1.10;1.00;;;6.70;99.90;;;;;;4984370;28;20418;-77
2024/02/08 11:47:18;;;;;;;0.80;0.80;;;6.70;99.90;;;;;;4983294;28;20449;-78
2024/02/08 11:50:04;;;;;;;0.68;0.68;;;6.60;99.90;;;;;;4981230;28;20038;-77
2024/02/08 11:52:31;;;;;;;0.40;0.40;;;6.60;99.90;;;;;;4985010;28;20039;-77
2024/02/08 11:55:14;;;;;;;0.98;0.75;;;6.60;99.90;;;;;;4984670;28;20121;-77
2024/02/08 11:57:41;;;;;;;0.80;0.80;;;6.50;99.90;;;;;;5002992;23;20046;-79
2024/02/08 12:00:16;;;;;;;0.90;0.70;;;6.50;99.90;;;;;;4972834;28;20019;-79
2024/02/08 12:03:01;;;;;;;1.63;0.70;;;6.50;99.90;;;;;;4974738;28;20099;-79
2024/02/08 12:05:28;;;;;;;3.55;3.25;;;6.60;99.90;;;;;;4970477;28;20502;-79
2024/02/08 12:08:08;;;;;;;1.10;1.00;;;6.80;99.90;;;;;;4971946;28;20121;-79
2024/02/08 12:10:35;;;;;;;0.40;0.40;;;6.70;99.90;;;;;;4970571;28;20062;-78
2024/02/08 12:13:01;;;;;;;0.47;0.45;;;6.70;99.90;;;;;;4967725;28;20513;-79
2024/02/08 12:15:28;;;;;;;1.42;1.33;;;6.60;99.90;;;;;;4966792;28;20034;-79
2024/02/08 12:18:08;;;;;;;0.80;0.80;;;6.60;99.90;;;;;;4965791;28;20039;-78
2024/02/08 12:20:36;;;;;;;0.98;0.88;;;6.70;99.90;;;;;;4950230;28;20041;-78
2024/02/08 12:23:02;;;;;;;0.60;0.60;;;6.60;99.90;;;;;;4968595;28;20038;-79
2024/02/08 12:25:29;;;;;;;1.08;0.80;;;6.70;99.90;;;;;;4964463;28;20074;-79
2024/02/08 12:28:06;;;;;;;1.17;1.00;;;6.70;99.90;;;;;;4968142;28;20032;-79
2024/02/08 12:30:40;;;;;;;1.35;1.20;;;6.70;99.90;;;;;;4950668;28;20515;-78
2024/02/08 12:33:09;;;;;;;0.52;0.52;;;6.60;99.90;;;;;;4961744;28;20451;-78
2024/02/08 12:35:40;;;;;;;1.60;0.50;;;6.60;99.90;;;;;;4954058;28;20502;-79
2024/02/08 12:38:09;;;;;;;0.60;0.50;;;6.50;99.90;;;;;;4964519;28;20034;-79
2024/02/08 12:40:35;;;;;;;1.83;0.60;;;6.40;99.90;;;;;;4962695;28;20015;-79
2024/02/08 12:43:01;;;;;;;0.40;0.40;;;6.40;99.90;;;;;;4972542;28;20031;-79
2024/02/08 12:45:31;;;;;;;1.17;0.45;;;6.40;99.90;;;;;;4968305;28;20035;-78
2024/02/08 12:47:57;;;;;;;0.50;0.40;;;6.50;99.90;;;;;;4975143;28;20046;-78
2024/02/08 12:50:24;;;;;;;1.45;0.88;;;6.50;99.90;;;;;;4971353;28;20131;-79
2024/02/08 12:52:55;;;;;;;1.25;0.82;;;6.60;99.90;;;;;;4972313;28;20039;-79
2024/02/08 12:55:22;;;;;;;2.22;1.38;;;6.60;99.90;;;;;;4967132;28;20039;-79
2024/02/08 12:57:57;;;;;;;1.55;1.45;;;6.70;99.90;;;;;;4975254;28;20035;-78
2024/02/08 13:00:24;;;;;;;1.10;1.05;;;6.70;99.90;;;;;;4970481;28;20525;-79
2024/02/08 13:02:54;;;;;;;1.60;1.48;;;6.70;99.90;;;;;;4963421;28;20038;-79
2024/02/08 13:05:22;;;;;;;1.58;1.33;;;6.80;99.90;;;;;;4979263;28;20030;-78
2024/02/08 13:08:00;;;;;;;1.98;1.88;;;6.80;99.90;;;;;;4974066;28;20406;-78
2024/02/08 13:10:28;;;;;;;1.58;1.40;;;6.80;99.90;;;;;;4963001;28;20039;-79
2024/02/08 13:13:04;;;;;;;1.52;1.40;;;6.80;99.90;;;;;;4967079;28;20114;-78
2024/02/08 13:15:33;;;;;;;1.65;1.55;;;6.80;99.90;;;;;;4966823;28;20031;-78
2024/02/08 13:18:00;;;;;;;1.70;1.40;;;6.90;99.90;;;;;;4970318;28;20054;-78
2024/02/08 13:20:27;;;;;;;9.05;6.00;;;6.90;99.90;;;;;;4968869;28;20038;-78
2024/02/08 13:22:54;;;;;;;10.70;6.43;;;6.90;99.90;;;;;;4974607;28;20038;-78
2024/02/08 13:25:21;;;;;;;2.20;2.00;;;7.00;99.90;;;;;;4973865;28;20058;-78
2024/02/08 13:27:50;;;;;;;19.10;11.30;;;7.00;99.90;;;;;;4959844;28;20046;-78
2024/02/08 13:30:16;;;;;;;12.88;9.80;;;7.00;99.90;;;;;;4975594;28;20039;-79
2024/02/08 13:32:49;;;;;;;7.63;4.95;;;7.10;99.90;;;;;;4971066;28;20054;-79
2024/02/08 13:35:21;;;;;;;5.82;4.65;;;7.20;99.90;;;;;;4972732;28;20398;-79
2024/02/08 13:37:52;;;;;;;27.75;16.60;;;7.30;99.90;;;;;;4963175;28;20089;-78
2024/02/08 13:40:20;;;;;;;26.88;19.30;;;7.30;99.90;;;;;;4962365;28;20495;-79
2024/02/08 13:42:47;;;;;;;4.40;3.42;;;7.40;99.90;;;;;;4967585;28;20019;-79
2024/02/08 13:45:14;;;;;;;3.08;2.78;;;7.40;99.90;;;;;;4967306;28;20110;-79
2024/02/08 13:47:46;;;;;;;4.22;2.65;;;7.50;99.90;;;;;;4962132;28;20035;-79
2024/02/08 13:50:12;;;;;;;2.80;2.50;;;7.60;99.90;;;;;;4969541;28;20505;-79
2024/02/08 13:52:38;;;;;;;3.83;3.35;;;7.70;99.90;;;;;;4963915;28;20035;-79
2024/02/08 13:55:07;;;;;;;5.25;3.55;;;7.70;99.90;;;;;;4972172;28;20073;-79
2024/02/08 13:57:34;;;;;;;3.17;2.88;;;7.70;99.90;;;;;;4966303;28;20391;-79
2024/02/08 14:00:03;;;;;;;6.53;3.95;;;7.80;99.90;;;;;;4958355;28;20023;-79
2024/02/08 14:02:39;;;;;;;6.53;3.85;;;7.80;99.90;;;;;;4967680;28;20043;-79
2024/02/08 14:05:16;;;;;;;6.53;3.83;;;7.80;99.90;;;;;;4963175;28;20101;-79
2024/02/08 14:07:52;;;;;;;4.60;3.10;;;7.80;99.90;;;;;;4963381;28;20555;-79
2024/02/08 14:10:18;;;;;;;;;;;7.80;99.90;;;;;;4968271;28;20035;-78
2024/02/08 14:12:48;;;;;;;3.45;2.50;;;7.90;99.90;;;;;;4975546;28;19921;-80
2024/02/08 14:15:16;;;;;;;3.05;2.20;;;7.90;99.90;;;;;;4970413;28;20107;-79
2024/02/08 14:17:53;;;;;;;2.22;1.83;;;8.00;99.90;;;;;;4970475;28;20514;-78
2024/02/08 14:20:35;;;;;;;2.00;1.55;;;8.00;99.90;;;;;;4974462;28;20059;-79
2024/02/08 14:23:01;;;;;;;2.47;1.65;;;8.10;99.90;;;;;;4964404;28;20031;-79
2024/02/08 14:28:12;;;;;;;1.23;1.02;;;8.20;99.90;;;;;;4971237;28;20122;-79
2024/02/08 14:30:40;;;;;;;41.75;3.67;;;8.30;99.90;;;;;;4957500;28;20066;-81
2024/02/08 14:33:28;;;;;;;41.35;2.60;;;8.30;99.90;;;;;;4958435;28;20450;-79
2024/02/08 14:35:54;;;;;;;1.17;0.50;;;8.40;99.90;;;;;;4958760;28;20045;-78
2024/02/08 14:38:20;;;;;;;2.88;0.95;;;8.40;99.90;;;;;;4991674;28;20543;-80
2024/02/08 14:40:47;;;;;;;2.13;0.70;;;8.40;99.90;;;;;;4958862;28;20078;-79
2024/02/08 14:43:25;;;;;;;103.80;5.05;;;8.40;99.90;;;;;;4970940;28;20541;-78
2024/02/08 14:45:54;;;;;;;8.25;1.02;;;8.40;99.90;;;;;;4960923;28;20137;-79
2024/02/08 14:48:27;;;;;;;180.63;10.75;;;8.40;99.90;;;;;;4962977;28;20055;-78
2024/02/08 14:51:29;;;;;;;4.70;0.75;;;8.40;99.90;;;;;;4965715;28;20034;-79
2024/02/08 14:53:45;;;;;;;12.98;0.80;;;8.50;99.90;;;;;;4965153;28;20514;-79
2024/02/08 14:56:18;;;;;;;181.13;11.07;;;8.40;99.90;;;;;;4964881;28;20026;-79
2024/02/08 14:58:56;;;;;;;87.47;5.63;;;8.50;99.90;;;;;;4960548;28;20085;-78
2024/02/08 15:01:38;;;;;;;0.30;0.30;;;8.40;99.90;;;;;;4963489;28;20045;-78
2024/02/08 15:04:16;;;;;;;5.18;0.80;;;8.50;99.90;;;;;;4961383;28;20031;-78
2024/02/08 15:14:47;;;;;;;8.10;0.82;;;8.60;99.90;;;;;;4966412;28;20509;-78
2024/02/08 15:17:18;;;;;;;177.35;9.38;;;8.60;99.90;;;;;;4948051;28;20123;-78
2024/02/08 15:19:45;;;;;;;111.32;7.18;;;8.60;99.90;;;;;;4963546;28;20054;-78
2024/02/08 15:24:57;;;;;;;0.50;0.50;;;8.60;99.90;;;;;;4963417;28;20554;-77
2024/02/08 15:27:34;;;;;;;2.40;0.68;;;8.60;99.90;;;;;;4975295;28;20035;-77
2024/02/08 15:30:18;;;;;;;1.85;0.65;;;8.60;99.90;;;;;;4960301;28;20064;-77
2024/02/08 15:35:36;;;;;;;1.35;0.80;;;8.60;99.90;;;;;;4958524;28;20053;-77
2024/02/08 15:40:47;;;;;;;467.60;26.67;;;8.60;99.90;;;;;;4982337;28;20035;-79